Time;durP1;ratioP1;P1;durP2;ratioP2;P2;SDS_P1;SDS_P2;PMS_P1;PMS_P2;Temp;Humidity;BMP_temperature;BMP_pressure;BME280_temperature;BME280_humidity;BME280_pressure;Samples;Min_cycle;Max_cycle;Signal;HPM_P1;HPM_P2
2023/04/14 00:01:32;;;;;;;;;;;5.20;99.90;;;;;;4976934;28;19959;-76
2023/04/14 00:03:57;;;;;;;;;;;5.10;99.90;;;;;;4976187;28;19977;-75
2023/04/14 00:06:23;;;;;;;;;;;5.00;99.90;;;;;;4982108;28;19925;-75
2023/04/14 00:08:48;;;;;;;;;;;5.00;99.90;;;;;;4976532;28;20408;-75
2023/04/14 00:11:14;;;;;;;;;;;4.80;99.90;;;;;;4993875;28;19921;-76
2023/04/14 00:13:39;;;;;;;;;;;4.70;99.90;;;;;;4976056;28;19929;-74
2023/04/14 00:16:05;;;;;;;;;;;4.60;99.90;;;;;;4976384;28;20270;-74
2023/04/14 00:18:31;;;;;;;;;;;4.50;99.90;;;;;;4985725;28;20393;-73
2023/04/14 00:20:56;;;;;;;;;;;4.40;99.90;;;;;;5012515;28;19921;-74
2023/04/14 00:23:22;;;;;;;;;;;4.40;99.90;;;;;;5013082;28;19921;-73
2023/04/14 00:25:48;;;;;;;;;;;4.40;99.90;;;;;;4991930;28;20020;-73
2023/04/14 00:28:13;;;;;;;;;;;4.40;99.90;;;;;;4975270;28;19922;-73
2023/04/14 00:30:39;;;;;;;;;;;4.30;99.90;;;;;;4993453;28;19922;-74
2023/04/14 00:33:05;;;;;;;;;;;4.20;99.90;;;;;;4976215;28;19921;-73
2023/04/14 00:35:31;;;;;;;;;;;4.30;99.90;;;;;;4992580;28;20335;-73
2023/04/14 00:37:57;;;;;;;;;;;4.30;99.90;;;;;;4976049;28;19922;-74
2023/04/14 00:40:23;;;;;;;;;;;4.20;99.90;;;;;;4993835;28;19968;-72
2023/04/14 00:42:49;;;;;;;;;;;4.20;99.90;;;;;;4975812;28;19921;-74
2023/04/14 00:45:15;;;;;;;;;;;4.10;99.90;;;;;;5003569;28;20284;-74
2023/04/14 00:47:45;;;;;;;;;;;4.10;99.90;;;;;;5017511;28;19925;-74
2023/04/14 00:50:11;;;;;;;;;;;4.10;99.90;;;;;;5016208;28;19925;-75
2023/04/14 00:52:37;;;;;;;;;;;4.20;99.90;;;;;;4999663;28;20440;-75
2023/04/14 00:55:04;;;;;;;;;;;4.30;99.90;;;;;;4994385;28;19976;-74
2023/04/14 00:57:30;;;;;;;;;;;4.30;99.90;;;;;;4979524;28;19922;-75
2023/04/14 00:59:56;;;;;;;;;;;4.40;99.90;;;;;;4979610;28;19928;-75
2023/04/14 01:02:22;;;;;;;;;;;4.50;99.90;;;;;;4996558;28;19965;-75
2023/04/14 01:04:48;;;;;;;;;;;4.30;99.90;;;;;;4997104;28;19976;-75
2023/04/14 01:07:13;;;;;;;;;;;4.20;99.90;;;;;;4979730;28;20008;-75
2023/04/14 01:09:39;;;;;;;;;;;4.20;99.90;;;;;;4979074;28;19945;-75
2023/04/14 01:12:06;;;;;;;;;;;4.20;99.90;;;;;;4997099;28;19926;-75
2023/04/14 01:14:40;;;;;;;;;;;4.10;99.90;;;;;;4979939;28;20294;-74
2023/04/14 01:17:26;;;;;;;;;;;4.20;99.90;;;;;;4997490;28;20289;-74
2023/04/14 01:19:58;;;;;;;;;;;4.20;99.90;;;;;;4995695;28;19977;-75
2023/04/14 01:22:29;;;;;;;;;;;4.30;99.90;;;;;;4996459;28;19921;-74
2023/04/14 01:25:13;;;;;;;;;;;4.40;99.90;;;;;;5001577;28;19972;-75
2023/04/14 01:27:44;;;;;;;;;;;4.40;99.90;;;;;;5015264;28;20336;-74
2023/04/14 01:30:19;;;;;;;;;;;4.50;99.90;;;;;;5016342;28;20220;-74
2023/04/14 01:32:46;;;;;;;;;;;4.60;99.90;;;;;;4998718;28;19925;-74
2023/04/14 01:35:19;;;;;;;;;;;4.60;99.90;;;;;;5015701;28;19961;-74
2023/04/14 01:37:48;;;;;;;;;;;4.60;99.90;;;;;;4991946;28;19929;-74
2023/04/14 01:40:15;;;;;;;;;;;4.60;99.90;;;;;;4998317;28;19937;-74
2023/04/14 01:42:45;;;;;;;;;;;4.60;99.90;;;;;;4998495;28;19932;-74
2023/04/14 01:45:25;;;;;;;;;;;4.50;99.90;;;;;;5007493;28;19930;-74
2023/04/14 01:47:51;;;;;;;;;;;4.50;99.90;;;;;;4996024;28;19932;-75
2023/04/14 01:50:17;;;;;;;;;;;4.50;99.90;;;;;;4979165;28;19926;-74
2023/04/14 01:52:46;;;;;;;;;;;4.50;99.90;;;;;;4978135;28;19918;-74
2023/04/14 01:55:13;;;;;;;;;;;4.40;99.90;;;;;;4982076;28;20282;-75
2023/04/14 01:57:39;;;;;;;;;;;4.90;99.90;;;;;;4996507;28;19917;-74
2023/04/14 02:00:06;;;;;;;;;;;4.30;99.90;;;;;;4994691;28;19945;-74
2023/04/14 02:02:33;;;;;;;;;;;4.30;99.90;;;;;;4995939;28;19977;-75
2023/04/14 02:05:00;;;;;;;;;;;4.40;99.90;;;;;;4978348;28;19929;-75
2023/04/14 02:07:26;;;;;;;;;;;4.40;99.90;;;;;;4995269;28;20388;-75
2023/04/14 02:09:52;;;;;;;;;;;4.40;99.90;;;;;;4978347;28;19922;-74
2023/04/14 02:12:19;;;;;;;;;;;4.40;99.90;;;;;;4996201;28;19922;-74
2023/04/14 02:14:45;;;;;;;;;;;4.40;99.90;;;;;;4995337;28;19949;-74
2023/04/14 02:17:11;;;;;;;;;;;4.30;99.90;;;;;;4978390;28;19932;-74
2023/04/14 02:19:41;;;;;;;;;;;4.20;99.90;;;;;;4977127;28;19926;-74
2023/04/14 02:22:06;;;;;;;;;;;4.20;99.90;;;;;;4995732;28;19922;-74
2023/04/14 02:24:32;;;;;;;;;;;5.70;99.90;;;;;;4978740;28;20020;-74
2023/04/14 02:27:00;;;;;;;;;;;4.20;99.90;;;;;;4977252;28;19921;-74
2023/04/14 02:29:26;;;;;;;;;;;5.40;99.90;;;;;;4996216;28;19926;-74
2023/04/14 02:31:55;;;;;;;;;;;4.20;99.90;;;;;;4993106;28;19929;-74
2023/04/14 02:34:23;;;;;;;;;;;4.80;99.90;;;;;;4977849;28;20416;-74
2023/04/14 02:36:54;;;;;;;;;;;4.00;99.90;;;;;;4978196;28;19922;-74
2023/04/14 02:39:27;;;;;;;;;;;4.10;99.90;;;;;;4978083;28;20365;-75
2023/04/14 02:41:56;;;;;;;;;;;4.00;99.90;;;;;;4993511;28;19969;-75
2023/04/14 02:44:24;;;;;;;;;;;4.00;99.90;;;;;;4978192;28;19968;-74
2023/04/14 02:46:56;;;;;;;;;;;4.00;99.90;;;;;;4995226;28;19926;-75
2023/04/14 02:49:23;;;;;;;;;;;4.10;99.90;;;;;;4988335;28;19926;-75
2023/04/14 02:51:52;;;;;;;;;;;4.20;99.90;;;;;;4995307;28;19921;-74
2023/04/14 02:54:19;;;;;;;;;;;4.20;99.90;;;;;;4977864;28;19929;-75
2023/04/14 02:56:45;;;;;;;;;;;4.20;99.90;;;;;;4977152;28;19926;-74
2023/04/14 02:59:11;;;;;;;;;;;4.20;99.90;;;;;;4994286;28;20275;-75
2023/04/14 03:01:37;;;;;;;;;;;4.20;99.90;;;;;;4986635;28;20008;-75
2023/04/14 03:04:03;;;;;;;;;;;4.30;99.90;;;;;;5013979;28;19944;-76
2023/04/14 03:06:30;;;;;;;;;;;4.40;99.90;;;;;;5014113;28;20373;-75
2023/04/14 03:08:57;;;;;;;;;;;4.40;99.90;;;;;;4986324;28;19921;-75
2023/04/14 03:11:24;;;;;;;;;;;4.40;99.90;;;;;;4977441;28;19922;-75
2023/04/14 03:13:51;;;;;;;;;;;4.30;99.90;;;;;;4977512;28;19928;-75
2023/04/14 03:16:18;;;;;;;;;;;4.30;99.90;;;;;;5013495;28;19932;-75
2023/04/14 03:18:45;;;;;;;;;;;4.30;99.90;;;;;;5012895;28;19921;-75
2023/04/14 03:21:12;;;;;;;;;;;4.30;99.90;;;;;;5014038;28;20013;-74
2023/04/14 03:23:38;;;;;;;;;;;4.60;99.90;;;;;;5013662;28;19928;-75
2023/04/14 03:26:04;;;;;;;;;;;4.50;99.90;;;;;;4991968;28;19925;-75
2023/04/14 03:28:32;;;;;;;;;;;4.30;99.90;;;;;;4994225;28;20003;-75
2023/04/14 03:31:00;;;;;;;;;;;4.40;99.90;;;;;;4976236;28;19929;-74
2023/04/14 03:33:27;;;;;;;;;;;4.40;99.90;;;;;;4977285;28;19921;-75
2023/04/14 03:35:52;;;;;;;;;;;4.40;99.90;;;;;;4976824;28;20341;-74
2023/04/14 03:38:19;;;;;;;;;;;4.30;99.90;;;;;;5007836;28;19921;-75
2023/04/14 03:40:46;;;;;;;;;;;4.30;99.90;;;;;;5013891;28;19921;-74
2023/04/14 03:43:21;;;;;;;;;;;4.10;99.90;;;;;;4996249;28;19921;-74
2023/04/14 03:45:48;;;;;;;;;;;4.00;99.90;;;;;;4984168;28;19976;-73
2023/04/14 03:48:16;;;;;;;;;;;4.00;99.90;;;;;;4994554;28;19925;-74
2023/04/14 03:50:44;;;;;;;;;;;3.90;99.90;;;;;;4995320;28;19921;-73
2023/04/14 03:53:11;;;;;;;;;;;3.90;99.90;;;;;;4976360;28;19944;-74
2023/04/14 03:55:37;;;;;;;;;;;3.90;99.90;;;;;;4977366;28;19932;-73
2023/04/14 03:58:03;;;;;;;;;;;4.00;99.90;;;;;;4975970;28;19922;-72
2023/04/14 04:00:29;;;;;;;;;;;4.10;99.90;;;;;;4994404;28;20012;-75
2023/04/14 04:02:56;;;;;;;;;;;4.00;99.90;;;;;;4993718;28;19925;-74
2023/04/14 04:05:25;;;;;;;;;;;4.00;99.90;;;;;;4993216;28;20409;-74
2023/04/14 04:07:50;;;;;;;;;;;3.90;99.90;;;;;;4976449;28;19926;-75
2023/04/14 04:10:18;;;;;;;;;;;3.90;99.90;;;;;;4993993;28;19922;-74
2023/04/14 04:12:46;;;;;;;;;;;3.90;99.90;;;;;;4992913;28;20361;-74
2023/04/14 04:15:11;;;;;;;;;;;3.90;99.90;;;;;;4977498;28;19944;-74
2023/04/14 04:17:37;;;;;;;;;;;3.90;99.90;;;;;;4993075;28;19921;-74
2023/04/14 04:20:05;;;;;;;;;;;3.80;99.90;;;;;;5002530;28;19922;-75
2023/04/14 04:22:32;;;;;;;;;;;3.70;99.90;;;;;;5000993;28;19941;-75
2023/04/14 04:24:58;;;;;;;;;;;4.10;99.90;;;;;;5015030;28;20365;-74
2023/04/14 04:27:24;;;;;;;;;;;3.60;99.90;;;;;;5011576;28;19929;-74
2023/04/14 04:29:49;;;;;;;;;;;3.60;99.90;;;;;;5013241;28;19967;-75
2023/04/14 04:32:17;;;;;;;;;;;3.50;99.90;;;;;;5013213;28;20012;-75
2023/04/14 04:34:43;;;;;;;;;;;3.40;99.90;;;;;;5010537;28;20290;-74
2023/04/14 04:37:09;;;;;;;;;;;3.50;99.90;;;;;;5012722;28;19928;-75
2023/04/14 04:39:35;;;;;;;;;;;3.40;99.90;;;;;;5003053;28;19921;-75
2023/04/14 04:42:01;;;;;;;;;;;3.60;99.90;;;;;;4991214;28;19932;-74
2023/04/14 04:44:27;;;;;;;;;;;3.40;99.90;;;;;;4991745;28;20338;-73
2023/04/14 04:46:53;;;;;;;;;;;3.50;99.90;;;;;;4994564;28;20000;-75
2023/04/14 04:49:19;;;;;;;;;;;3.60;99.90;;;;;;4989161;28;20029;-75
2023/04/14 04:51:45;;;;;;;;;;;3.40;99.90;;;;;;4998067;28;19961;-76
2023/04/14 04:54:14;;;;;;;;;;;3.40;99.90;;;;;;5021557;28;20004;-75
2023/04/14 04:56:43;;;;;;;;;;;3.30;99.90;;;;;;5003638;28;20124;-76
2023/04/14 04:59:09;;;;;;;;;;;3.20;99.90;;;;;;4991761;28;20274;-76
2023/04/14 05:01:35;;;;;;;;;;;3.10;99.90;;;;;;4992769;28;20011;-75
2023/04/14 05:04:00;;;;;;;;;;;3.10;99.90;;;;;;4995925;28;20373;-74
2023/04/14 05:06:27;;;;;;;;;;;3.10;99.90;;;;;;4998416;28;19917;-75
2023/04/14 05:08:53;;;;;;;;;;;3.20;99.90;;;;;;4974749;28;19945;-75
2023/04/14 05:11:21;;;;;;;;;;;3.10;99.90;;;;;;4993870;28;19917;-75
2023/04/14 05:13:47;;;;;;;;;;;3.10;99.90;;;;;;4995425;28;20289;-75
2023/04/14 05:16:13;;;;;;;;;;;3.10;99.90;;;;;;4993709;28;19927;-75
2023/04/14 05:18:39;;;;;;;;;;;3.20;99.90;;;;;;5010972;28;19922;-75
2023/04/14 05:21:06;;;;;;;;;;;3.30;99.90;;;;;;5012487;28;19929;-74
2023/04/14 05:23:39;;;;;;;;;;;3.20;99.90;;;;;;4990147;28;19972;-75
2023/04/14 05:26:05;;;;;;;;;;;3.30;99.90;;;;;;4992714;28;20266;-74
2023/04/14 05:28:30;;;;;;;;;;;3.30;99.90;;;;;;4992717;28;19932;-75
2023/04/14 05:30:56;;;;;;;;;;;3.30;99.90;;;;;;5011013;28;19921;-75
2023/04/14 05:33:21;;;;;;;;;;;4.00;99.90;;;;;;5013606;28;19949;-75
2023/04/14 05:35:49;;;;;;;;;;;3.60;99.90;;;;;;5016439;28;19944;-75
2023/04/14 05:38:15;;;;;;;;;;;3.50;99.90;;;;;;4997272;28;19975;-75
2023/04/14 05:40:41;;;;;;;;;;;3.50;99.90;;;;;;4998398;28;19976;-75
2023/04/14 05:43:07;;;;;;;;;;;3.60;99.90;;;;;;5015382;28;19968;-73
2023/04/14 05:45:32;;;;;;;;;;;3.60;99.90;;;;;;4989941;28;20020;-73
2023/04/14 05:47:58;;;;;;;;;;;3.70;99.90;;;;;;4978507;28;19922;-74
2023/04/14 05:50:24;;;;;;;;;;;3.80;99.90;;;;;;4979573;28;19965;-73
2023/04/14 05:52:50;;;;;;;;;;;3.80;99.90;;;;;;4991398;28;19917;-72
2023/04/14 05:55:19;;;;;;;;;;;3.80;99.90;;;;;;4996274;28;19922;-74
2023/04/14 05:57:45;;;;;;;;;;;4.00;99.90;;;;;;4995415;28;19925;-71
2023/04/14 06:00:11;;;;;;;;;;;4.10;99.90;;;;;;4995086;28;20085;-74
2023/04/14 06:02:39;;;;;;;;;;;4.20;99.90;;;;;;4994801;28;19973;-75
2023/04/14 06:05:06;;;;;;;;;;;4.40;99.90;;;;;;4994843;28;20330;-77
2023/04/14 06:07:32;;;;;;;;;;;4.50;99.90;;;;;;4998169;28;20016;-75
2023/04/14 06:09:57;;;;;;;;;;;4.60;99.90;;;;;;4999553;28;20064;-71
2023/04/14 06:12:23;;;;;;;;;;;4.60;99.90;;;;;;4995692;28;19924;-73
2023/04/14 06:14:48;;;;;;;;;;;4.70;99.90;;;;;;5013955;28;20012;-73
2023/04/14 06:17:14;;;;;;;;;;;4.80;99.90;;;;;;5012620;28;20491;-73
2023/04/14 06:19:39;;;;;;;;;;;4.90;99.90;;;;;;5010200;28;19921;-73
2023/04/14 06:22:05;;;;;;;;;;;4.90;99.90;;;;;;4994741;28;19920;-73
2023/04/14 06:24:33;;;;;;;;;;;5.60;99.90;;;;;;4996582;28;19949;-74
2023/04/14 06:26:59;;;;;;;;;;;5.80;99.90;;;;;;4992984;28;19968;-73
2023/04/14 06:29:25;;;;;;;;;;;5.30;99.90;;;;;;4996867;28;20301;-72
2023/04/14 06:31:51;;;;;;;;;;;6.80;99.90;;;;;;4984456;28;20493;-72
2023/04/14 06:34:17;;;;;;;;;;;6.00;99.90;;;;;;4975080;28;19921;-73
2023/04/14 06:36:42;;;;;;;;;;;5.40;99.90;;;;;;4976300;28;19922;-73
2023/04/14 06:39:08;;;;;;;;;;;5.50;99.90;;;;;;5004680;28;19922;-73
2023/04/14 06:41:34;;;;;;;;;;;6.50;99.90;;;;;;4994055;28;19922;-73
2023/04/14 06:43:59;;;;;;;;;;;5.60;99.90;;;;;;4993280;28;20439;-74
2023/04/14 06:46:25;;;;;;;;;;;6.30;99.90;;;;;;4995473;28;19922;-72
2023/04/14 06:48:50;;;;;;;;;;;5.70;99.90;;;;;;4977101;28;20452;-72
2023/04/14 06:51:16;;;;;;;;;;;5.90;99.90;;;;;;4988768;28;19917;-73
2023/04/14 06:53:42;;;;;;;;;;;6.00;99.90;;;;;;4995288;28;20016;-73
2023/04/14 06:56:08;;;;;;;;;;;6.20;99.90;;;;;;4991096;28;20016;-73
2023/04/14 06:58:33;;;;;;;;;;;6.30;99.90;;;;;;5010552;28;19926;-73
2023/04/14 07:01:00;;;;;;;;;;;6.40;99.90;;;;;;5013724;28;19932;-73
2023/04/14 07:03:26;;;;;;;;;;;6.50;99.90;;;;;;4997030;28;20330;-73
2023/04/14 07:05:52;;;;;;;;;;;6.60;99.90;;;;;;5013910;28;20242;-74
2023/04/14 07:08:20;;;;;;;;;;;6.70;99.90;;;;;;5009679;28;20508;-82
2023/04/14 07:10:46;;;;;;;;;;;6.80;99.90;;;;;;4982185;28;20396;-74
2023/04/14 07:13:15;;;;;;;;;;;7.00;99.90;;;;;;4977255;28;19922;-76
2023/04/14 07:15:44;;;;;;;;;;;8.20;99.90;;;;;;4994618;28;19926;-82
2023/04/14 07:18:09;;;;;;;;;;;8.90;99.90;;;;;;4989085;28;19923;-74
2023/04/14 07:20:35;;;;;;;;;;;9.20;99.90;;;;;;4960694;28;19929;-73
2023/04/14 07:23:00;;;;;;;;;;;10.40;99.90;;;;;;4974772;28;19933;-75
2023/04/14 07:25:26;;;;;;;;;;;11.40;99.90;;;;;;4975650;28;19918;-71
2023/04/14 07:27:51;;;;;;;;;;;12.30;99.90;;;;;;4977232;28;19945;-70
2023/04/14 07:30:17;;;;;;;;;;;13.00;99.90;;;;;;4975111;28;19922;-78
2023/04/14 07:32:43;;;;;;;;;;;13.40;99.90;;;;;;4957960;28;19950;-74
2023/04/14 07:35:09;;;;;;;;;;;13.90;99.90;;;;;;4958329;29;19929;-70
2023/04/14 07:37:35;;;;;;;;;;;14.30;99.90;;;;;;4958296;28;20016;-74
2023/04/14 07:40:01;;;;;;;;;;;14.60;99.90;;;;;;4958063;29;19957;-72
2023/04/14 07:42:27;;;;;;;;;;;15.00;99.90;;;;;;4958848;28;19922;-71
2023/04/14 07:44:53;;;;;;;;;;;15.20;99.90;;;;;;4957908;28;19922;-71
2023/04/14 07:47:18;;;;;;;;;;;15.60;99.90;;;;;;4961317;28;19929;-75
2023/04/14 07:49:44;;;;;;;;;;;15.80;99.90;;;;;;4958193;29;19922;-72
2023/04/14 07:52:09;;;;;;;;;;;15.80;99.90;;;;;;4956818;28;19923;-74
2023/04/14 07:54:35;;;;;;;;;;;16.10;99.90;;;;;;4957110;29;20343;-72
2023/04/14 07:57:01;;;;;;;;;;;16.40;99.10;;;;;;4958005;28;19930;-73
2023/04/14 07:59:26;;;;;;;;;;;16.30;99.50;;;;;;4960857;28;20345;-74
2023/04/14 08:01:52;;;;;;;;;;;16.50;97.30;;;;;;4976044;28;19977;-73
2023/04/14 08:04:18;;;;;;;;;;;16.40;97.90;;;;;;4976111;28;20385;-74
2023/04/14 08:06:43;;;;;;;;;;;16.50;98.90;;;;;;4978099;28;20389;-73
2023/04/14 08:09:09;;;;;;;;;;;16.80;97.70;;;;;;4972474;28;20294;-73
2023/04/14 08:11:34;;;;;;;;;;;17.10;96.50;;;;;;4996459;28;19917;-74
2023/04/14 08:14:00;;;;;;;;;;;17.10;97.20;;;;;;4980436;28;20362;-73
2023/04/14 08:16:26;;;;;;;;;;;17.30;96.20;;;;;;4995664;28;19955;-74
2023/04/14 08:18:52;;;;;;;;;;;17.30;96.30;;;;;;4978091;28;19929;-75
2023/04/14 08:21:17;;;;;;;;;;;17.30;96.10;;;;;;4977010;28;19925;-75
2023/04/14 08:23:43;;;;;;;;;;;17.40;96.00;;;;;;4978345;28;19922;-75
2023/04/14 08:26:09;;;;;;;;;;;17.50;95.00;;;;;;4975509;28;19921;-74
2023/04/14 08:28:34;;;;;;;;;;;17.70;93.90;;;;;;4994116;28;19921;-74
2023/04/14 08:31:00;;;;;;;;;;;17.70;94.10;;;;;;4976244;28;19922;-75
2023/04/14 08:33:26;;;;;;;;;;;17.60;93.70;;;;;;4975574;28;20278;-75
2023/04/14 08:35:51;;;;;;;;;;;17.70;94.20;;;;;;4993529;28;19926;-74
2023/04/14 08:38:18;;;;;;;;;;;17.80;94.70;;;;;;4988856;28;20008;-75
2023/04/14 08:40:46;;;;;;;;;;;17.80;94.00;;;;;;4992568;28;19963;-74
2023/04/14 08:43:14;;;;;;;;;;;18.30;92.60;;;;;;4993453;28;19988;-75
2023/04/14 08:45:40;;;;;;;;;;;18.40;93.30;;;;;;4976206;28;19917;-74
2023/04/14 08:48:06;;;;;;;;;;;18.30;92.50;;;;;;4975074;28;20424;-75
2023/04/14 08:50:35;;;;;;;;;;;18.20;92.60;;;;;;4993549;28;19918;-74
2023/04/14 08:53:04;;;;;;;;;;;18.00;92.10;;;;;;4984020;28;19928;-74
2023/04/14 08:55:31;;;;;;;;;;;18.10;91.90;;;;;;5007572;28;19921;-74
2023/04/14 08:57:57;;;;;;;;;;;17.90;93.20;;;;;;4988841;28;20440;-75
2023/04/14 09:00:22;;;;;;;;;;;18.20;91.40;;;;;;5006874;28;20004;-75
2023/04/14 09:02:49;;;;;;;;;;;18.30;91.70;;;;;;4984047;28;20302;-75
2023/04/14 09:05:14;;;;;;;;;;;18.30;91.40;;;;;;5005917;28;19928;-75
2023/04/14 09:07:41;;;;;;;;;;;18.20;91.70;;;;;;5023875;28;19925;-75
2023/04/14 09:10:08;;;;;;;;;;;18.40;92.00;;;;;;5030792;28;19924;-75
2023/04/14 09:12:35;;;;;;;;;;;18.50;91.10;;;;;;5036234;28;19928;-74
2023/04/14 09:15:00;;;;;;;;;;;18.50;90.10;;;;;;5014329;28;19966;-74
2023/04/14 09:17:27;;;;;;;;;;;18.30;91.20;;;;;;4979384;28;19921;-74
2023/04/14 09:19:52;;;;;;;;;;;18.60;90.60;;;;;;4978969;28;20262;-74
2023/04/14 09:22:18;;;;;;;;;;;19.00;91.20;;;;;;4978483;28;19921;-74
2023/04/14 09:24:43;;;;;;;;;;;19.00;90.80;;;;;;5009640;28;19925;-74
2023/04/14 09:27:11;;;;;;;;;;;19.20;91.90;;;;;;4997790;28;20160;-75
2023/04/14 09:29:37;;;;;;;;;;;19.50;90.40;;;;;;4978651;28;19921;-77
2023/04/14 09:32:06;;;;;;;;;;;19.70;89.60;;;;;;4979287;28;20358;-76
2023/04/14 09:34:46;;;;;;;;;;;19.60;90.10;;;;;;4984033;28;19936;-78
2023/04/14 09:37:12;;;;;;;;;;;19.30;89.30;;;;;;4978057;28;19922;-74
2023/04/14 09:39:46;;;;;;;;;;;19.40;89.60;;;;;;4996884;28;19968;-73
2023/04/14 09:42:11;;;;;;;;;;;19.20;88.20;;;;;;4978859;28;19965;-74
2023/04/14 09:44:51;;;;;;;;;;;19.10;90.80;;;;;;4985976;28;19968;-74
2023/04/14 09:47:18;;;;;;;;;;;19.20;89.50;;;;;;5015964;28;19935;-74
2023/04/14 09:49:54;;;;;;;;;;;19.10;87.80;;;;;;5015012;28;19921;-75
2023/04/14 09:52:20;;;;;;;;;;;19.40;89.60;;;;;;4998772;28;20013;-77
2023/04/14 09:54:46;;;;;;;;;;;19.60;87.80;;;;;;5015480;28;20004;-75
2023/04/14 09:57:22;;;;;;;;;;;19.70;84.50;;;;;;4997577;28;19918;-75
2023/04/14 09:59:48;;;;;;;;;;;19.50;85.80;;;;;;4998025;28;19921;-73
2023/04/14 10:02:14;;;;;;;;;;;19.70;86.20;;;;;;4998244;28;20016;-74
2023/04/14 10:04:40;;;;;;;;;;;19.80;83.20;;;;;;4989848;28;20349;-74
2023/04/14 10:07:10;;;;;;;;;;;19.50;84.00;;;;;;4978358;28;20301;-74
2023/04/14 10:09:37;;;;;;;;;;;19.20;86.50;;;;;;4996126;28;19968;-72
2023/04/14 10:12:07;;;;;;;;;;;19.30;86.80;;;;;;4977831;28;20320;-72
2023/04/14 10:14:33;;;;;;;;;;;19.30;88.20;;;;;;5002699;28;19922;-74
2023/04/14 10:17:01;;;;;;;;;;;19.40;86.60;;;;;;5015226;28;20008;-76
2023/04/14 10:19:28;;;;;;;;;;;19.50;83.00;;;;;;4996901;28;20421;-74
2023/04/14 10:21:54;;;;;;;;;;;19.60;85.50;;;;;;5015140;28;20289;-75
2023/04/14 10:24:20;;;;;;;;;;;20.00;86.00;;;;;;4986079;28;19929;-81
2023/04/14 10:26:48;;;;;;;;;;;20.20;84.90;;;;;;4995207;28;20401;-83
2023/04/14 10:29:14;;;;;;;;;;;20.40;83.20;;;;;;4978788;28;19922;-78
2023/04/14 10:31:41;;;;;;;;;;;20.40;84.10;;;;;;4978447;28;19923;-82
2023/04/14 10:34:11;;;;;;;;;;;20.20;84.10;;;;;;4983651;28;20277;-79
2023/04/14 10:36:37;;;;;;;;;;;20.40;82.90;;;;;;4995965;28;19965;-78
2023/04/14 10:39:04;;;;;;;;;;;20.80;79.70;;;;;;4977377;28;19963;-78
2023/04/14 10:41:46;;;;;;;;;;;20.60;80.20;;;;;;4978159;28;20473;-78
2023/04/14 10:44:24;;;;;;;;;;;21.10;79.00;;;;;;4995180;28;19948;-80
2023/04/14 10:46:51;;;;;;;;;;;21.00;77.70;;;;;;4977496;28;20378;-80
2023/04/14 10:49:17;;;;;;;;;;;20.70;77.20;;;;;;4995472;28;19968;-80
2023/04/14 10:51:46;;;;;;;;;;;20.00;80.60;;;;;;4977923;28;20369;-72
2023/04/14 10:54:18;;;;;;;;;;;20.50;78.70;;;;;;4977571;28;19972;-71
2023/04/14 10:57:14;;;;;;;;;;;20.50;79.50;;;;;;4995498;28;19933;-70
2023/04/14 10:59:44;;;;;;;;;;;20.60;80.50;;;;;;4967617;28;19921;-72
2023/04/14 11:02:22;;;;;;;;;;;20.80;78.80;;;;;;5020960;28;19947;-71
2023/04/14 11:05:04;;;;;;;;;;;20.60;78.30;;;;;;4995041;28;19926;-71
2023/04/14 11:07:33;;;;;;;;;;;20.40;79.10;;;;;;4994473;28;19926;-71
2023/04/14 11:10:07;;;;;;;;;;;20.50;80.00;;;;;;4994705;28;19922;-71
2023/04/14 11:12:40;;;;;;;;;;;20.80;77.10;;;;;;4983395;28;19917;-70
2023/04/14 11:15:06;;;;;;;;;;;20.40;76.40;;;;;;4976665;28;19972;-72
2023/04/14 11:17:36;;;;;;;;;;;19.90;77.50;;;;;;4995132;28;20358;-71
2023/04/14 11:20:12;;;;;;;;;;;19.90;78.10;;;;;;4976699;28;19926;-74
2023/04/14 11:22:40;;;;;;;;;;;20.00;81.00;;;;;;4981922;28;20350;-75
2023/04/14 11:25:06;;;;;;;;;;;20.00;80.40;;;;;;4988342;28;19959;-71
2023/04/14 11:27:33;;;;;;;;;;;19.70;80.60;;;;;;4976878;28;19968;-74
2023/04/14 11:30:02;;;;;;;;;;;19.50;78.60;;;;;;4994656;28;19932;-73
2023/04/14 11:32:43;;;;;;;;;;;18.90;80.10;;;;;;5010395;28;19945;-73
2023/04/14 11:35:09;;;;;;;;;;;18.00;80.60;;;;;;5013367;28;20297;-71
2023/04/14 11:37:34;;;;;;;;;;;17.40;81.10;;;;;;4996494;28;19929;-73
2023/04/14 11:40:01;;;;;;;;;;;17.80;83.30;;;;;;5013532;28;20302;-76
2023/04/14 11:42:26;;;;;;;;;;;18.30;84.20;;;;;;4991308;28;19988;-76
2023/04/14 11:44:58;;;;;;;;;;;18.90;83.20;;;;;;4993752;28;19968;-74
2023/04/14 11:47:24;;;;;;;;;;;19.20;80.00;;;;;;4977151;28;19921;-73
2023/04/14 11:49:50;;;;;;;;;;;19.30;79.70;;;;;;4975993;28;19921;-73
2023/04/14 11:52:19;;;;;;;;;;;19.00;78.40;;;;;;4994175;28;20358;-73
2023/04/14 11:54:45;;;;;;;;;;;18.20;84.10;;;;;;4976773;28;19928;-73
2023/04/14 11:57:16;;;;;;;;;;;17.90;82.60;;;;;;4975899;28;19925;-73
2023/04/14 11:59:42;;;;;;;;;;;17.20;82.80;;;;;;4996262;28;20404;-75
2023/04/14 12:02:18;;;;;;;;;;;16.50;83.90;;;;;;5013563;28;20027;-73
2023/04/14 12:04:44;;;;;;;;;;;16.20;85.70;;;;;;4985970;28;19921;-74
2023/04/14 12:07:17;;;;;;;;;;;16.00;87.30;;;;;;4993252;28;19922;-73
2023/04/14 12:09:43;;;;;;;;;;;15.90;87.30;;;;;;4976660;28;20009;-74
2023/04/14 12:12:10;;;;;;;;;;;15.70;83.70;;;;;;4975628;28;20231;-72
2023/04/14 12:14:37;;;;;;;;;;;15.30;87.30;;;;;;4993835;28;19926;-72
2023/04/14 12:17:03;;;;;;;;;;;15.10;86.80;;;;;;4975962;28;19968;-71
2023/04/14 12:19:31;;;;;;;;;;;14.90;88.30;;;;;;4994251;28;20003;-71
2023/04/14 12:21:56;;;;;;;;;;;14.90;88.80;;;;;;4996262;28;19929;-73
2023/04/14 12:24:22;;;;;;;;;;;15.00;88.10;;;;;;4977602;28;19922;-70
2023/04/14 12:26:48;;;;;;;;;;;14.80;90.00;;;;;;4986936;28;19917;-72
2023/04/14 12:29:13;;;;;;;;;;;15.00;90.10;;;;;;5013371;28;20368;-71
2023/04/14 12:31:43;;;;;;;;;;;16.10;87.90;;;;;;5012688;28;20284;-70
2023/04/14 12:34:16;;;;;;;;;;;17.00;84.10;;;;;;4995586;28;19921;-71
2023/04/14 12:36:51;;;;;;;;;;;17.60;83.40;;;;;;5012824;28;20392;-71
2023/04/14 12:39:17;;;;;;;;;;;18.30;82.00;;;;;;5011629;28;19925;-73
2023/04/14 12:41:43;;;;;;;;;;;19.10;82.00;;;;;;4987910;28;19922;-72
2023/04/14 12:44:16;;;;;;;;;;;19.20;76.30;;;;;;4991199;28;20254;-74
2023/04/14 12:46:46;;;;;;;;;;;19.00;75.80;;;;;;4991655;28;19962;-78
2023/04/14 12:49:28;;;;;;;;;;;18.80;76.50;;;;;;4992550;28;19937;-76
2023/04/14 12:51:53;;;;;;;;;;;18.70;76.90;;;;;;4999090;28;20407;-73
2023/04/14 12:54:19;;;;;;;;;;;18.80;75.80;;;;;;4984164;28;19917;-78
2023/04/14 12:56:45;;;;;;;;;;;18.80;76.10;;;;;;5004146;28;19921;-73
2023/04/14 12:59:11;;;;;;;;;;;18.60;79.30;;;;;;4994575;28;19933;-76
2023/04/14 13:01:37;;;;;;;;;;;18.80;75.10;;;;;;4998259;28;19926;-75
2023/04/14 13:04:04;;;;;;;;;;;18.60;76.30;;;;;;4992912;28;19922;-75
2023/04/14 13:06:30;;;;;;;;;;;18.40;74.10;;;;;;4996185;28;19929;-75
2023/04/14 13:08:55;;;;;;;;;;;18.30;81.70;;;;;;4990824;28;19929;-74
2023/04/14 13:11:22;;;;;;;;;;;18.50;79.60;;;;;;4996062;28;19925;-77
2023/04/14 13:13:48;;;;;;;;;;;18.50;77.20;;;;;;5007334;28;19933;-77
2023/04/14 13:16:14;;;;;;;;;;;18.30;79.80;;;;;;4975130;28;19922;-76
2023/04/14 13:18:39;;;;;;;;;;;18.20;79.30;;;;;;5000261;28;19921;-75
2023/04/14 13:21:05;;;;;;;;;;;18.30;79.40;;;;;;5003431;28;20005;-73
2023/04/14 13:23:34;;;;;;;;;;;18.50;82.30;;;;;;4981433;28;19922;-76
2023/04/14 13:26:00;;;;;;;;;;;18.40;79.20;;;;;;4991903;28;19928;-77
2023/04/14 13:28:26;;;;;;;;;;;18.30;77.30;;;;;;5011740;28;20385;-76
2023/04/14 13:30:52;;;;;;;;;;;18.50;77.00;;;;;;4992792;28;19932;-76
2023/04/14 13:33:18;;;;;;;;;;;18.50;76.10;;;;;;4989977;28;20451;-76
2023/04/14 13:35:44;;;;;;;;;;;18.60;75.80;;;;;;4991740;28;19921;-77
2023/04/14 13:38:09;;;;;;;;;;;18.60;77.40;;;;;;4978154;28;19968;-78
2023/04/14 13:40:35;;;;;;;;;;;18.60;78.70;;;;;;4985343;28;19929;-80
2023/04/14 13:43:00;;;;;;;;;;;18.50;79.20;;;;;;4991635;28;19926;-79
2023/04/14 13:45:27;;;;;;;;;;;18.30;78.00;;;;;;4993689;28;20366;-85
2023/04/14 13:47:52;;;;;;;;;;;17.90;77.70;;;;;;4979311;28;19928;-87
2023/04/14 13:50:18;;;;;;;;;;;17.40;79.40;;;;;;5012406;28;19921;-81
2023/04/14 13:52:44;;;;;;;;;;;17.20;79.40;;;;;;5015549;28;19921;-81
2023/04/14 13:55:10;;;;;;;;;;;16.90;78.20;;;;;;5013545;28;20375;-82
2023/04/14 13:57:36;;;;;;;;;;;16.70;80.00;;;;;;4994014;28;19929;-83
2023/04/14 14:00:06;;;;;;;;;;;16.40;81.40;;;;;;4997068;28;20366;-88
2023/04/14 14:02:32;;;;;;;;;;;16.30;81.60;;;;;;4983419;28;20345;-82
2023/04/14 14:04:59;;;;;;;;;;;16.30;85.00;;;;;;4995045;28;19928;-82
2023/04/14 14:07:27;;;;;;;;;;;16.50;82.60;;;;;;4995689;28;19921;-81
2023/04/14 14:09:53;;;;;;;;;;;16.60;79.50;;;;;;4990404;28;20296;-81
2023/04/14 14:12:18;;;;;;;;;;;16.50;79.80;;;;;;5015219;28;20266;-81
2023/04/14 14:14:44;;;;;;;;;;;16.80;79.40;;;;;;5015425;28;19929;-81
2023/04/14 14:17:09;;;;;;;;;;;16.90;76.20;;;;;;5014234;28;19921;-81
2023/04/14 14:19:35;;;;;;;;;;;16.70;77.70;;;;;;5005849;28;20001;-82
2023/04/14 14:22:01;;;;;;;;;;;16.70;78.70;;;;;;4977419;28;19921;-82
2023/04/14 14:24:27;;;;;;;;;;;16.90;80.90;;;;;;4979668;28;19960;-93